sensor_id;sensor_type;location;lat;lon;timestamp;P1;durP1;ratioP1;P2;durP2;ratioP2
21505;SDS011;10914;48.886;9.394;2022-10-17T00:00:16;36.65;;;34.45;;
21505;SDS011;10914;48.886;9.394;2022-10-17T00:02:41;38.15;;;35.92;;
21505;SDS011;10914;48.886;9.394;2022-10-17T00:05:06;35.83;;;33.70;;
21505;SDS011;10914;48.886;9.394;2022-10-17T00:07:32;35.13;;;33.17;;
21505;SDS011;10914;48.886;9.394;2022-10-17T00:09:57;41.10;;;38.90;;
21505;SDS011;10914;48.886;9.394;2022-10-17T00:12:22;36.27;;;34.03;;
21505;SDS011;10914;48.886;9.394;2022-10-17T00:14:47;35.33;;;33.33;;
21505;SDS011;10914;48.886;9.394;2022-10-17T00:17:12;38.57;;;36.07;;
21505;SDS011;10914;48.886;9.394;2022-10-17T00:19:39;43.90;;;41.40;;
21505;SDS011;10914;48.886;9.394;2022-10-17T00:22:04;35.57;;;33.57;;
21505;SDS011;10914;48.886;9.394;2022-10-17T00:24:29;33.10;;;31.07;;
21505;SDS011;10914;48.886;9.394;2022-10-17T00:26:55;30.60;;;28.85;;
21505;SDS011;10914;48.886;9.394;2022-10-17T00:29:20;31.03;;;29.27;;
21505;SDS011;10914;48.886;9.394;2022-10-17T00:31:45;30.38;;;28.77;;
21505;SDS011;10914;48.886;9.394;2022-10-17T00:34:10;30.93;;;29.23;;
21505;SDS011;10914;48.886;9.394;2022-10-17T00:36:36;29.87;;;27.97;;
21505;SDS011;10914;48.886;9.394;2022-10-17T00:39:01;35.92;;;33.60;;
21505;SDS011;10914;48.886;9.394;2022-10-17T00:41:29;48.08;;;45.47;;
21505;SDS011;10914;48.886;9.394;2022-10-17T00:44:02;29.77;;;28.13;;
21505;SDS011;10914;48.886;9.394;2022-10-17T00:46:29;38.65;;;36.05;;
21505;SDS011;10914;48.886;9.394;2022-10-17T00:48:55;44.05;;;41.60;;
21505;SDS011;10914;48.886;9.394;2022-10-17T00:51:23;38.05;;;36.00;;
21505;SDS011;10914;48.886;9.394;2022-10-17T00:53:50;34.88;;;32.92;;
21505;SDS011;10914;48.886;9.394;2022-10-17T00:56:16;33.80;;;31.85;;
21505;SDS011;10914;48.886;9.394;2022-10-17T00:58:42;41.75;;;39.40;;
21505;SDS011;10914;48.886;9.394;2022-10-17T01:01:07;35.38;;;33.15;;
21505;SDS011;10914;48.886;9.394;2022-10-17T01:03:33;35.90;;;33.85;;
21505;SDS011;10914;48.886;9.394;2022-10-17T01:05:58;38.70;;;36.38;;
21505;SDS011;10914;48.886;9.394;2022-10-17T01:08:23;31.02;;;29.23;;
21505;SDS011;10914;48.886;9.394;2022-10-17T01:13:35;39.15;;;37.05;;
21505;SDS011;10914;48.886;9.394;2022-10-17T01:16:07;37.17;;;35.28;;
21505;SDS011;10914;48.886;9.394;2022-10-17T01:18:47;36.85;;;34.85;;
21505;SDS011;10914;48.886;9.394;2022-10-17T01:34:03;31.83;;;29.98;;
21505;SDS011;10914;48.886;9.394;2022-10-17T01:39:10;38.70;;;36.40;;
21505;SDS011;10914;48.886;9.394;2022-10-17T01:41:41;41.25;;;38.45;;
21505;SDS011;10914;48.886;9.394;2022-10-17T01:46:37;37.13;;;35.13;;
21505;SDS011;10914;48.886;9.394;2022-10-17T01:49:03;32.13;;;30.33;;
21505;SDS011;10914;48.886;9.394;2022-10-17T01:51:30;36.08;;;34.10;;
21505;SDS011;10914;48.886;9.394;2022-10-17T01:53:59;35.72;;;33.47;;
21505;SDS011;10914;48.886;9.394;2022-10-17T01:56:26;37.58;;;35.25;;
21505;SDS011;10914;48.886;9.394;2022-10-17T01:58:54;33.03;;;31.13;;
21505;SDS011;10914;48.886;9.394;2022-10-17T02:01:21;40.53;;;38.00;;
21505;SDS011;10914;48.886;9.394;2022-10-17T02:03:47;35.10;;;33.15;;
21505;SDS011;10914;48.886;9.394;2022-10-17T02:06:14;32.70;;;30.58;;
21505;SDS011;10914;48.886;9.394;2022-10-17T02:08:40;31.25;;;29.15;;
21505;SDS011;10914;48.886;9.394;2022-10-17T02:16:33;32.70;;;30.38;;
21505;SDS011;10914;48.886;9.394;2022-10-17T02:19:06;35.13;;;33.13;;
21505;SDS011;10914;48.886;9.394;2022-10-17T02:21:37;36.28;;;34.38;;
21505;SDS011;10914;48.886;9.394;2022-10-17T02:24:16;34.22;;;32.40;;
21505;SDS011;10914;48.886;9.394;2022-10-17T02:26:48;36.75;;;34.47;;
21505;SDS011;10914;48.886;9.394;2022-10-17T02:29:18;36.33;;;34.17;;
21505;SDS011;10914;48.886;9.394;2022-10-17T02:31:48;46.63;;;44.08;;
21505;SDS011;10914;48.886;9.394;2022-10-17T02:34:16;35.80;;;33.80;;
21505;SDS011;10914;48.886;9.394;2022-10-17T02:36:44;36.00;;;34.00;;
21505;SDS011;10914;48.886;9.394;2022-10-17T02:39:10;35.90;;;33.92;;
21505;SDS011;10914;48.886;9.394;2022-10-17T02:41:36;37.50;;;35.35;;
21505;SDS011;10914;48.886;9.394;2022-10-17T02:44:02;39.72;;;37.50;;
21505;SDS011;10914;48.886;9.394;2022-10-17T02:46:29;37.38;;;34.97;;
21505;SDS011;10914;48.886;9.394;2022-10-17T02:49:28;39.92;;;37.75;;
21505;SDS011;10914;48.886;9.394;2022-10-17T02:52:00;48.58;;;45.72;;
21505;SDS011;10914;48.886;9.394;2022-10-17T02:56:57;43.90;;;41.47;;
21505;SDS011;10914;48.886;9.394;2022-10-17T02:59:23;45.38;;;42.70;;
21505;SDS011;10914;48.886;9.394;2022-10-17T03:01:49;55.90;;;52.90;;
21505;SDS011;10914;48.886;9.394;2022-10-17T03:04:15;53.45;;;50.45;;
21505;SDS011;10914;48.886;9.394;2022-10-17T03:06:40;53.97;;;51.15;;
21505;SDS011;10914;48.886;9.394;2022-10-17T03:09:06;55.15;;;52.38;;
21505;SDS011;10914;48.886;9.394;2022-10-17T03:11:31;61.30;;;57.75;;
21505;SDS011;10914;48.886;9.394;2022-10-17T03:13:57;56.00;;;52.72;;
21505;SDS011;10914;48.886;9.394;2022-10-17T03:16:22;74.45;;;70.30;;
21505;SDS011;10914;48.886;9.394;2022-10-17T03:18:47;76.53;;;72.55;;
21505;SDS011;10914;48.886;9.394;2022-10-17T03:21:12;68.33;;;64.53;;
21505;SDS011;10914;48.886;9.394;2022-10-17T03:23:37;63.03;;;59.50;;
21505;SDS011;10914;48.886;9.394;2022-10-17T03:26:03;75.22;;;71.10;;
21505;SDS011;10914;48.886;9.394;2022-10-17T03:28:30;74.28;;;70.25;;
21505;SDS011;10914;48.886;9.394;2022-10-17T03:30:55;78.30;;;73.88;;
21505;SDS011;10914;48.886;9.394;2022-10-17T03:33:20;66.87;;;63.13;;
21505;SDS011;10914;48.886;9.394;2022-10-17T03:35:45;71.27;;;67.33;;
21505;SDS011;10914;48.886;9.394;2022-10-17T03:38:11;80.90;;;76.55;;
21505;SDS011;10914;48.886;9.394;2022-10-17T03:40:36;101.25;;;95.78;;
21505;SDS011;10914;48.886;9.394;2022-10-17T03:43:01;82.20;;;77.95;;
21505;SDS011;10914;48.886;9.394;2022-10-17T03:45:26;82.05;;;77.75;;
21505;SDS011;10914;48.886;9.394;2022-10-17T03:47:51;73.80;;;69.60;;
21505;SDS011;10914;48.886;9.394;2022-10-17T03:50:17;77.05;;;73.10;;
21505;SDS011;10914;48.886;9.394;2022-10-17T03:52:45;82.00;;;77.27;;
21505;SDS011;10914;48.886;9.394;2022-10-17T03:55:10;100.82;;;95.43;;
21505;SDS011;10914;48.886;9.394;2022-10-17T03:57:35;106.30;;;100.68;;
21505;SDS011;10914;48.886;9.394;2022-10-17T04:00:01;99.30;;;93.90;;
21505;SDS011;10914;48.886;9.394;2022-10-17T04:02:26;111.05;;;104.97;;
21505;SDS011;10914;48.886;9.394;2022-10-17T04:04:51;90.22;;;85.50;;
21505;SDS011;10914;48.886;9.394;2022-10-17T04:07:16;108.50;;;102.72;;
21505;SDS011;10914;48.886;9.394;2022-10-17T04:09:41;112.10;;;106.30;;
21505;SDS011;10914;48.886;9.394;2022-10-17T04:12:07;108.50;;;102.60;;
21505;SDS011;10914;48.886;9.394;2022-10-17T04:14:32;112.47;;;105.90;;
21505;SDS011;10914;48.886;9.394;2022-10-17T04:16:57;103.13;;;97.50;;
21505;SDS011;10914;48.886;9.394;2022-10-17T04:19:22;100.32;;;94.85;;
21505;SDS011;10914;48.886;9.394;2022-10-17T04:21:49;110.10;;;104.38;;
21505;SDS011;10914;48.886;9.394;2022-10-17T04:24:14;101.43;;;96.03;;
21505;SDS011;10914;48.886;9.394;2022-10-17T04:26:40;99.90;;;94.32;;
21505;SDS011;10914;48.886;9.394;2022-10-17T04:29:05;101.57;;;96.38;;
21505;SDS011;10914;48.886;9.394;2022-10-17T04:31:30;102.73;;;97.27;;
21505;SDS011;10914;48.886;9.394;2022-10-17T04:33:55;94.20;;;89.03;;
21505;SDS011;10914;48.886;9.394;2022-10-17T04:36:20;89.05;;;84.13;;
21505;SDS011;10914;48.886;9.394;2022-10-17T04:38:47;92.57;;;87.53;;
21505;SDS011;10914;48.886;9.394;2022-10-17T04:41:14;91.25;;;86.28;;
21505;SDS011;10914;48.886;9.394;2022-10-17T04:43:39;85.47;;;80.85;;
21505;SDS011;10914;48.886;9.394;2022-10-17T04:46:06;95.13;;;90.20;;
21505;SDS011;10914;48.886;9.394;2022-10-17T04:48:31;97.90;;;92.68;;
21505;SDS011;10914;48.886;9.394;2022-10-17T04:51:04;95.40;;;90.15;;
21505;SDS011;10914;48.886;9.394;2022-10-17T04:53:30;85.47;;;81.00;;
21505;SDS011;10914;48.886;9.394;2022-10-17T04:55:55;90.72;;;85.40;;
21505;SDS011;10914;48.886;9.394;2022-10-17T04:58:20;93.03;;;87.82;;
21505;SDS011;10914;48.886;9.394;2022-10-17T05:00:46;89.30;;;84.65;;
21505;SDS011;10914;48.886;9.394;2022-10-17T05:03:11;90.68;;;85.97;;
21505;SDS011;10914;48.886;9.394;2022-10-17T05:05:37;89.32;;;84.35;;
21505;SDS011;10914;48.886;9.394;2022-10-17T05:08:02;86.88;;;82.28;;
21505;SDS011;10914;48.886;9.394;2022-10-17T05:10:28;94.35;;;89.43;;
21505;SDS011;10914;48.886;9.394;2022-10-17T05:12:54;101.93;;;96.68;;
21505;SDS011;10914;48.886;9.394;2022-10-17T05:15:19;91.15;;;86.13;;
21505;SDS011;10914;48.886;9.394;2022-10-17T05:17:44;94.45;;;89.38;;
21505;SDS011;10914;48.886;9.394;2022-10-17T05:20:10;101.47;;;96.30;;
21505;SDS011;10914;48.886;9.394;2022-10-17T05:22:35;101.28;;;96.00;;
21505;SDS011;10914;48.886;9.394;2022-10-17T05:25:00;98.22;;;92.93;;
21505;SDS011;10914;48.886;9.394;2022-10-17T05:27:25;114.72;;;108.82;;
21505;SDS011;10914;48.886;9.394;2022-10-17T05:29:51;112.32;;;106.40;;
21505;SDS011;10914;48.886;9.394;2022-10-17T05:32:16;104.57;;;98.83;;
21505;SDS011;10914;48.886;9.394;2022-10-17T05:34:41;96.80;;;91.55;;
21505;SDS011;10914;48.886;9.394;2022-10-17T05:37:06;105.68;;;99.65;;
21505;SDS011;10914;48.886;9.394;2022-10-17T05:39:31;93.73;;;88.40;;
21505;SDS011;10914;48.886;9.394;2022-10-17T05:41:56;90.00;;;85.40;;
21505;SDS011;10914;48.886;9.394;2022-10-17T05:44:22;99.05;;;93.70;;
21505;SDS011;10914;48.886;9.394;2022-10-17T05:46:47;113.00;;;107.15;;
21505;SDS011;10914;48.886;9.394;2022-10-17T05:49:13;103.28;;;97.97;;
21505;SDS011;10914;48.886;9.394;2022-10-17T05:51:38;93.22;;;88.32;;
21505;SDS011;10914;48.886;9.394;2022-10-17T05:54:04;95.57;;;90.70;;
21505;SDS011;10914;48.886;9.394;2022-10-17T05:56:30;99.03;;;93.35;;
21505;SDS011;10914;48.886;9.394;2022-10-17T05:58:55;106.90;;;101.27;;
21505;SDS011;10914;48.886;9.394;2022-10-17T06:01:20;119.90;;;113.63;;
21505;SDS011;10914;48.886;9.394;2022-10-17T06:03:46;136.48;;;129.15;;
21505;SDS011;10914;48.886;9.394;2022-10-17T06:06:12;139.27;;;131.85;;
21505;SDS011;10914;48.886;9.394;2022-10-17T06:08:37;124.75;;;118.32;;
21505;SDS011;10914;48.886;9.394;2022-10-17T06:11:03;129.73;;;122.80;;
21505;SDS011;10914;48.886;9.394;2022-10-17T06:13:28;116.78;;;110.68;;
21505;SDS011;10914;48.886;9.394;2022-10-17T06:15:53;117.45;;;111.35;;
21505;SDS011;10914;48.886;9.394;2022-10-17T06:18:19;123.00;;;116.40;;
21505;SDS011;10914;48.886;9.394;2022-10-17T06:20:44;108.93;;;103.38;;
21505;SDS011;10914;48.886;9.394;2022-10-17T06:23:09;100.60;;;95.30;;
21505;SDS011;10914;48.886;9.394;2022-10-17T06:25:34;105.27;;;99.70;;
21505;SDS011;10914;48.886;9.394;2022-10-17T06:27:59;80.88;;;76.15;;
21505;SDS011;10914;48.886;9.394;2022-10-17T06:30:25;75.18;;;71.07;;
21505;SDS011;10914;48.886;9.394;2022-10-17T06:32:50;67.37;;;63.70;;
21505;SDS011;10914;48.886;9.394;2022-10-17T06:35:16;58.70;;;55.55;;
21505;SDS011;10914;48.886;9.394;2022-10-17T06:37:41;55.50;;;52.53;;
21505;SDS011;10914;48.886;9.394;2022-10-17T06:40:06;50.22;;;47.55;;
21505;SDS011;10914;48.886;9.394;2022-10-17T06:42:34;50.17;;;47.55;;
21505;SDS011;10914;48.886;9.394;2022-10-17T06:44:59;40.17;;;37.87;;
21505;SDS011;10914;48.886;9.394;2022-10-17T06:47:24;44.87;;;42.27;;
21505;SDS011;10914;48.886;9.394;2022-10-17T06:49:49;43.65;;;41.00;;
21505;SDS011;10914;48.886;9.394;2022-10-17T06:52:14;39.13;;;36.77;;
21505;SDS011;10914;48.886;9.394;2022-10-17T06:54:41;39.45;;;37.13;;
21505;SDS011;10914;48.886;9.394;2022-10-17T06:57:07;38.92;;;36.60;;
21505;SDS011;10914;48.886;9.394;2022-10-17T06:59:32;37.47;;;35.40;;
21505;SDS011;10914;48.886;9.394;2022-10-17T07:01:57;39.28;;;36.88;;
21505;SDS011;10914;48.886;9.394;2022-10-17T07:04:24;44.45;;;41.85;;
21505;SDS011;10914;48.886;9.394;2022-10-17T07:06:49;62.53;;;59.10;;
21505;SDS011;10914;48.886;9.394;2022-10-17T07:09:14;47.13;;;44.47;;
21505;SDS011;10914;48.886;9.394;2022-10-17T07:11:40;45.72;;;43.15;;
21505;SDS011;10914;48.886;9.394;2022-10-17T07:14:06;47.47;;;44.63;;
21505;SDS011;10914;48.886;9.394;2022-10-17T07:16:31;54.90;;;52.10;;
21505;SDS011;10914;48.886;9.394;2022-10-17T07:18:56;41.75;;;39.38;;
21505;SDS011;10914;48.886;9.394;2022-10-17T07:21:21;40.42;;;38.05;;
21505;SDS011;10914;48.886;9.394;2022-10-17T07:23:47;64.97;;;61.47;;
21505;SDS011;10914;48.886;9.394;2022-10-17T07:26:13;37.63;;;35.60;;
21505;SDS011;10914;48.886;9.394;2022-10-17T07:28:39;31.17;;;29.00;;
21505;SDS011;10914;48.886;9.394;2022-10-17T07:31:05;40.72;;;38.38;;
21505;SDS011;10914;48.886;9.394;2022-10-17T07:33:30;40.00;;;37.88;;
21505;SDS011;10914;48.886;9.394;2022-10-17T07:35:57;30.05;;;28.35;;
21505;SDS011;10914;48.886;9.394;2022-10-17T07:38:22;33.08;;;31.05;;
21505;SDS011;10914;48.886;9.394;2022-10-17T07:40:52;31.40;;;29.60;;
21505;SDS011;10914;48.886;9.394;2022-10-17T07:43:18;30.30;;;28.50;;
21505;SDS011;10914;48.886;9.394;2022-10-17T07:45:43;30.93;;;28.80;;
21505;SDS011;10914;48.886;9.394;2022-10-17T07:48:08;28.77;;;27.27;;
21505;SDS011;10914;48.886;9.394;2022-10-17T07:50:33;31.85;;;30.08;;
21505;SDS011;10914;48.886;9.394;2022-10-17T07:52:58;30.57;;;28.73;;
21505;SDS011;10914;48.886;9.394;2022-10-17T07:55:23;31.13;;;29.45;;
21505;SDS011;10914;48.886;9.394;2022-10-17T07:57:49;29.85;;;28.25;;
21505;SDS011;10914;48.886;9.394;2022-10-17T08:00:14;28.73;;;27.00;;
21505;SDS011;10914;48.886;9.394;2022-10-17T08:02:39;27.65;;;26.02;;
21505;SDS011;10914;48.886;9.394;2022-10-17T08:05:05;29.27;;;27.58;;
21505;SDS011;10914;48.886;9.394;2022-10-17T08:07:30;32.03;;;30.27;;
21505;SDS011;10914;48.886;9.394;2022-10-17T08:09:55;28.02;;;26.00;;
21505;SDS011;10914;48.886;9.394;2022-10-17T08:12:20;25.02;;;23.27;;
21505;SDS011;10914;48.886;9.394;2022-10-17T08:14:46;25.27;;;23.55;;
21505;SDS011;10914;48.886;9.394;2022-10-17T08:17:12;24.63;;;23.23;;
21505;SDS011;10914;48.886;9.394;2022-10-17T08:19:37;27.10;;;25.55;;
21505;SDS011;10914;48.886;9.394;2022-10-17T08:22:03;26.50;;;24.90;;
21505;SDS011;10914;48.886;9.394;2022-10-17T08:24:28;27.83;;;26.23;;
21505;SDS011;10914;48.886;9.394;2022-10-17T08:26:54;26.73;;;25.00;;
21505;SDS011;10914;48.886;9.394;2022-10-17T08:29:20;26.15;;;24.65;;
21505;SDS011;10914;48.886;9.394;2022-10-17T08:31:45;26.30;;;24.70;;
21505;SDS011;10914;48.886;9.394;2022-10-17T08:34:10;25.02;;;23.08;;
21505;SDS011;10914;48.886;9.394;2022-10-17T08:36:35;22.93;;;21.60;;
21505;SDS011;10914;48.886;9.394;2022-10-17T08:39:01;24.27;;;22.80;;
21505;SDS011;10914;48.886;9.394;2022-10-17T08:44:11;24.55;;;22.85;;
21505;SDS011;10914;48.886;9.394;2022-10-17T08:46:40;24.95;;;23.45;;
21505;SDS011;10914;48.886;9.394;2022-10-17T08:49:09;24.80;;;23.10;;
21505;SDS011;10914;48.886;9.394;2022-10-17T08:51:36;24.80;;;23.33;;
21505;SDS011;10914;48.886;9.394;2022-10-17T08:56:34;25.58;;;24.02;;
21505;SDS011;10914;48.886;9.394;2022-10-17T08:59:04;26.45;;;24.98;;
21505;SDS011;10914;48.886;9.394;2022-10-17T09:01:37;28.45;;;26.85;;
21505;SDS011;10914;48.886;9.394;2022-10-17T09:04:23;27.17;;;25.60;;
21505;SDS011;10914;48.886;9.394;2022-10-17T09:06:56;26.33;;;24.63;;
21505;SDS011;10914;48.886;9.394;2022-10-17T09:12:18;25.50;;;24.08;;
21505;SDS011;10914;48.886;9.394;2022-10-17T09:14:49;25.42;;;23.83;;
21505;SDS011;10914;48.886;9.394;2022-10-17T09:22:22;22.60;;;21.13;;
21505;SDS011;10914;48.886;9.394;2022-10-17T09:24:59;22.27;;;20.98;;
21505;SDS011;10914;48.886;9.394;2022-10-17T09:27:27;24.67;;;23.20;;
21505;SDS011;10914;48.886;9.394;2022-10-17T09:30:01;22.48;;;21.15;;
21505;SDS011;10914;48.886;9.394;2022-10-17T09:32:35;22.63;;;20.92;;
21505;SDS011;10914;48.886;9.394;2022-10-17T09:35:01;21.38;;;20.08;;
21505;SDS011;10914;48.886;9.394;2022-10-17T09:37:28;21.13;;;19.80;;
21505;SDS011;10914;48.886;9.394;2022-10-17T09:39:54;20.70;;;19.58;;
21505;SDS011;10914;48.886;9.394;2022-10-17T09:42:19;20.83;;;19.70;;
21505;SDS011;10914;48.886;9.394;2022-10-17T09:47:28;20.88;;;19.60;;
21505;SDS011;10914;48.886;9.394;2022-10-17T09:49:55;20.75;;;19.65;;
21505;SDS011;10914;48.886;9.394;2022-10-17T09:52:24;21.10;;;20.00;;
21505;SDS011;10914;48.886;9.394;2022-10-17T09:55:36;22.15;;;21.05;;
21505;SDS011;10914;48.886;9.394;2022-10-17T09:57:56;23.02;;;21.80;;
21505;SDS011;10914;48.886;9.394;2022-10-17T10:00:23;22.13;;;20.92;;
21505;SDS011;10914;48.886;9.394;2022-10-17T10:02:48;23.73;;;22.45;;
21505;SDS011;10914;48.886;9.394;2022-10-17T10:05:15;23.73;;;22.33;;
21505;SDS011;10914;48.886;9.394;2022-10-17T10:07:41;22.30;;;20.90;;
21505;SDS011;10914;48.886;9.394;2022-10-17T10:10:21;27.25;;;25.92;;
21505;SDS011;10914;48.886;9.394;2022-10-17T10:13:00;27.90;;;26.30;;
21505;SDS011;10914;48.886;9.394;2022-10-17T10:15:30;20.65;;;19.15;;
21505;SDS011;10914;48.886;9.394;2022-10-17T10:17:56;20.65;;;19.50;;
21505;SDS011;10914;48.886;9.394;2022-10-17T10:20:34;21.97;;;20.40;;
21505;SDS011;10914;48.886;9.394;2022-10-17T10:23:09;19.98;;;18.85;;
21505;SDS011;10914;48.886;9.394;2022-10-17T10:25:35;19.38;;;18.38;;
21505;SDS011;10914;48.886;9.394;2022-10-17T10:28:00;20.58;;;19.05;;
21505;SDS011;10914;48.886;9.394;2022-10-17T10:30:28;20.48;;;19.23;;
21505;SDS011;10914;48.886;9.394;2022-10-17T10:32:53;19.02;;;17.92;;
21505;SDS011;10914;48.886;9.394;2022-10-17T10:35:21;17.80;;;16.77;;
21505;SDS011;10914;48.886;9.394;2022-10-17T10:37:52;18.00;;;17.10;;
21505;SDS011;10914;48.886;9.394;2022-10-17T10:40:19;18.98;;;17.98;;
21505;SDS011;10914;48.886;9.394;2022-10-17T10:42:47;18.25;;;17.25;;
21505;SDS011;10914;48.886;9.394;2022-10-17T10:45:17;19.05;;;18.05;;
21505;SDS011;10914;48.886;9.394;2022-10-17T10:52:42;17.87;;;16.87;;
21505;SDS011;10914;48.886;9.394;2022-10-17T10:55:31;17.23;;;16.20;;
21505;SDS011;10914;48.886;9.394;2022-10-17T10:57:56;17.23;;;16.20;;
21505;SDS011;10914;48.886;9.394;2022-10-17T11:00:23;17.08;;;16.17;;
21505;SDS011;10914;48.886;9.394;2022-10-17T11:07:53;17.58;;;16.50;;
21505;SDS011;10914;48.886;9.394;2022-10-17T11:10:29;17.70;;;16.80;;
21505;SDS011;10914;48.886;9.394;2022-10-17T11:12:59;18.48;;;17.40;;
21505;SDS011;10914;48.886;9.394;2022-10-17T11:15:30;17.98;;;16.77;;
21505;SDS011;10914;48.886;9.394;2022-10-17T11:17:59;17.58;;;16.58;;
21505;SDS011;10914;48.886;9.394;2022-10-17T11:22:55;18.15;;;16.67;;
21505;SDS011;10914;48.886;9.394;2022-10-17T11:25:33;17.73;;;16.55;;
21505;SDS011;10914;48.886;9.394;2022-10-17T11:27:59;17.77;;;16.73;;
21505;SDS011;10914;48.886;9.394;2022-10-17T11:30:26;17.20;;;16.20;;
21505;SDS011;10914;48.886;9.394;2022-10-17T11:32:52;17.40;;;16.40;;
21505;SDS011;10914;48.886;9.394;2022-10-17T11:35:23;16.48;;;15.57;;
21505;SDS011;10914;48.886;9.394;2022-10-17T11:37:50;16.73;;;15.63;;
21505;SDS011;10914;48.886;9.394;2022-10-17T11:40:21;16.00;;;15.10;;
21505;SDS011;10914;48.886;9.394;2022-10-17T11:42:53;16.45;;;15.43;;
21505;SDS011;10914;48.886;9.394;2022-10-17T11:45:22;15.90;;;14.75;;
21505;SDS011;10914;48.886;9.394;2022-10-17T11:47:53;15.73;;;14.60;;
21505;SDS011;10914;48.886;9.394;2022-10-17T11:50:26;15.27;;;14.45;;
21505;SDS011;10914;48.886;9.394;2022-10-17T11:52:55;16.00;;;15.20;;
21505;SDS011;10914;48.886;9.394;2022-10-17T11:55:22;16.05;;;15.07;;
21505;SDS011;10914;48.886;9.394;2022-10-17T12:03:27;16.10;;;15.10;;
21505;SDS011;10914;48.886;9.394;2022-10-17T12:05:57;15.85;;;14.75;;
21505;SDS011;10914;48.886;9.394;2022-10-17T12:08:26;16.45;;;15.43;;
21505;SDS011;10914;48.886;9.394;2022-10-17T12:10:55;16.58;;;15.30;;
21505;SDS011;10914;48.886;9.394;2022-10-17T12:14:09;15.88;;;14.85;;
21505;SDS011;10914;48.886;9.394;2022-10-17T12:21:27;15.93;;;14.70;;
21505;SDS011;10914;48.886;9.394;2022-10-17T12:23:52;16.20;;;15.00;;
21505;SDS011;10914;48.886;9.394;2022-10-17T12:26:25;15.45;;;14.55;;
21505;SDS011;10914;48.886;9.394;2022-10-17T12:28:51;15.85;;;14.85;;
21505;SDS011;10914;48.886;9.394;2022-10-17T12:33:51;15.80;;;14.80;;
21505;SDS011;10914;48.886;9.394;2022-10-17T12:46:41;16.17;;;14.85;;
21505;SDS011;10914;48.886;9.394;2022-10-17T12:55:10;17.27;;;15.95;;
21505;SDS011;10914;48.886;9.394;2022-10-17T13:02:36;16.03;;;15.00;;
21505;SDS011;10914;48.886;9.394;2022-10-17T13:05:05;16.77;;;15.43;;
21505;SDS011;10914;48.886;9.394;2022-10-17T13:07:32;16.65;;;15.63;;
21505;SDS011;10914;48.886;9.394;2022-10-17T13:09:57;17.35;;;16.35;;
21505;SDS011;10914;48.886;9.394;2022-10-17T13:12:28;17.77;;;16.73;;
21505;SDS011;10914;48.886;9.394;2022-10-17T13:14:54;17.73;;;16.63;;
21505;SDS011;10914;48.886;9.394;2022-10-17T13:17:20;18.45;;;17.30;;
21505;SDS011;10914;48.886;9.394;2022-10-17T13:19:46;17.83;;;16.73;;
21505;SDS011;10914;48.886;9.394;2022-10-17T13:22:19;20.17;;;18.63;;
21505;SDS011;10914;48.886;9.394;2022-10-17T13:24:45;25.90;;;24.30;;
21505;SDS011;10914;48.886;9.394;2022-10-17T13:27:24;26.02;;;24.42;;
21505;SDS011;10914;48.886;9.394;2022-10-17T13:29:50;23.00;;;21.80;;
21505;SDS011;10914;48.886;9.394;2022-10-17T13:32:15;21.90;;;20.67;;
21505;SDS011;10914;48.886;9.394;2022-10-17T13:34:41;21.10;;;19.70;;
21505;SDS011;10914;48.886;9.394;2022-10-17T13:37:09;19.20;;;18.10;;
21505;SDS011;10914;48.886;9.394;2022-10-17T13:39:37;19.58;;;18.42;;
21505;SDS011;10914;48.886;9.394;2022-10-17T13:42:03;18.95;;;17.90;;
21505;SDS011;10914;48.886;9.394;2022-10-17T13:44:31;21.90;;;20.23;;
21505;SDS011;10914;48.886;9.394;2022-10-17T13:46:57;19.88;;;18.55;;
21505;SDS011;10914;48.886;9.394;2022-10-17T13:49:25;20.70;;;19.27;;
21505;SDS011;10914;48.886;9.394;2022-10-17T13:51:54;20.38;;;19.05;;
21505;SDS011;10914;48.886;9.394;2022-10-17T13:54:34;19.50;;;18.40;;
21505;SDS011;10914;48.886;9.394;2022-10-17T13:56:59;19.60;;;18.38;;
21505;SDS011;10914;48.886;9.394;2022-10-17T13:59:27;20.88;;;19.08;;
21505;SDS011;10914;48.886;9.394;2022-10-17T14:01:53;20.70;;;19.17;;
21505;SDS011;10914;48.886;9.394;2022-10-17T14:04:19;20.90;;;19.58;;
21505;SDS011;10914;48.886;9.394;2022-10-17T14:06:45;22.27;;;20.87;;
21505;SDS011;10914;48.886;9.394;2022-10-17T14:09:19;21.45;;;20.05;;
21505;SDS011;10914;48.886;9.394;2022-10-17T14:11:54;21.95;;;20.73;;
21505;SDS011;10914;48.886;9.394;2022-10-17T14:14:21;22.92;;;21.40;;
21505;SDS011;10914;48.886;9.394;2022-10-17T14:16:47;22.10;;;20.85;;
21505;SDS011;10914;48.886;9.394;2022-10-17T14:21:47;20.73;;;19.23;;
21505;SDS011;10914;48.886;9.394;2022-10-17T14:26:47;19.80;;;18.25;;
21505;SDS011;10914;48.886;9.394;2022-10-17T14:29:20;21.60;;;20.20;;
21505;SDS011;10914;48.886;9.394;2022-10-17T14:31:46;20.60;;;19.55;;
21505;SDS011;10914;48.886;9.394;2022-10-17T14:34:28;21.08;;;19.88;;
21505;SDS011;10914;48.886;9.394;2022-10-17T14:36:54;20.05;;;18.85;;
21505;SDS011;10914;48.886;9.394;2022-10-17T14:39:21;20.03;;;18.83;;
21505;SDS011;10914;48.886;9.394;2022-10-17T14:41:47;20.48;;;19.27;;
21505;SDS011;10914;48.886;9.394;2022-10-17T14:44:17;19.80;;;18.48;;
21505;SDS011;10914;48.886;9.394;2022-10-17T14:46:44;20.10;;;18.90;;
21505;SDS011;10914;48.886;9.394;2022-10-17T14:49:16;19.60;;;18.40;;
21505;SDS011;10914;48.886;9.394;2022-10-17T14:52:08;20.35;;;19.20;;
21505;SDS011;10914;48.886;9.394;2022-10-17T14:54:27;27.05;;;24.95;;
21505;SDS011;10914;48.886;9.394;2022-10-17T14:56:54;27.52;;;25.73;;
21505;SDS011;10914;48.886;9.394;2022-10-17T14:59:19;23.63;;;22.25;;
21505;SDS011;10914;48.886;9.394;2022-10-17T15:01:48;24.60;;;23.00;;
21505;SDS011;10914;48.886;9.394;2022-10-17T15:04:13;22.08;;;20.48;;
21505;SDS011;10914;48.886;9.394;2022-10-17T15:06:39;21.63;;;20.40;;
21505;SDS011;10914;48.886;9.394;2022-10-17T15:09:04;23.13;;;21.85;;
21505;SDS011;10914;48.886;9.394;2022-10-17T15:11:30;22.42;;;21.08;;
21505;SDS011;10914;48.886;9.394;2022-10-17T15:13:55;22.77;;;21.25;;
21505;SDS011;10914;48.886;9.394;2022-10-17T15:16:21;22.20;;;20.93;;
21505;SDS011;10914;48.886;9.394;2022-10-17T15:18:47;22.63;;;21.15;;
21505;SDS011;10914;48.886;9.394;2022-10-17T15:21:13;22.33;;;21.02;;
21505;SDS011;10914;48.886;9.394;2022-10-17T15:23:38;23.42;;;22.02;;
21505;SDS011;10914;48.886;9.394;2022-10-17T15:26:20;24.50;;;23.10;;
21505;SDS011;10914;48.886;9.394;2022-10-17T15:28:46;23.95;;;22.40;;
21505;SDS011;10914;48.886;9.394;2022-10-17T15:31:12;22.67;;;21.15;;
21505;SDS011;10914;48.886;9.394;2022-10-17T15:33:38;23.45;;;21.98;;
21505;SDS011;10914;48.886;9.394;2022-10-17T15:36:03;22.13;;;20.75;;
21505;SDS011;10914;48.886;9.394;2022-10-17T15:38:28;29.63;;;27.83;;
21505;SDS011;10914;48.886;9.394;2022-10-17T15:40:54;24.53;;;23.10;;
21505;SDS011;10914;48.886;9.394;2022-10-17T15:43:19;22.25;;;20.67;;
21505;SDS011;10914;48.886;9.394;2022-10-17T15:45:44;21.30;;;20.20;;
21505;SDS011;10914;48.886;9.394;2022-10-17T15:48:14;21.15;;;19.77;;
21505;SDS011;10914;48.886;9.394;2022-10-17T15:50:39;24.13;;;22.63;;
21505;SDS011;10914;48.886;9.394;2022-10-17T15:53:07;23.47;;;22.07;;
21505;SDS011;10914;48.886;9.394;2022-10-17T15:55:34;22.35;;;20.70;;